sensor_id;sensor_type;location;lat;lon;timestamp;pressure;altitude;pressure_sealevel;temperature;humidity
29383;BME280;16365;51.598;7.668;2022-08-01T00:02:01;100873.66;;;25.96;54.54
29383;BME280;16365;51.598;7.668;2022-08-01T00:04:28;100874.09;;;25.94;54.95
29383;BME280;16365;51.598;7.668;2022-08-01T00:06:55;100869.22;;;25.95;54.78
29383;BME280;16365;51.598;7.668;2022-08-01T00:09:21;100882.19;;;25.96;54.93
29383;BME280;16365;51.598;7.668;2022-08-01T00:11:49;100876.09;;;25.97;54.67
29383;BME280;16365;51.598;7.668;2022-08-01T00:14:25;100874.84;;;25.98;54.79
29383;BME280;16365;51.598;7.668;2022-08-01T00:16:58;100879.75;;;25.98;54.52
29383;BME280;16365;51.598;7.668;2022-08-01T00:19:32;100886.22;;;25.98;54.75
29383;BME280;16365;51.598;7.668;2022-08-01T00:21:59;100875.31;;;25.97;54.59
29383;BME280;16365;51.598;7.668;2022-08-01T00:24:26;100874.09;;;25.94;54.54
29383;BME280;16365;51.598;7.668;2022-08-01T00:26:52;100877.38;;;25.93;54.70
29383;BME280;16365;51.598;7.668;2022-08-01T00:29:19;100874.59;;;25.89;54.44
29383;BME280;16365;51.598;7.668;2022-08-01T00:32:05;100880.72;;;25.87;55.01
29383;BME280;16365;51.598;7.668;2022-08-01T00:34:33;100882.75;;;25.87;54.64
29383;BME280;16365;51.598;7.668;2022-08-01T00:37:00;100873.84;;;25.85;54.24
29383;BME280;16365;51.598;7.668;2022-08-01T00:39:26;100882.00;;;25.83;54.63
29383;BME280;16365;51.598;7.668;2022-08-01T00:41:53;100880.00;;;25.80;54.95
29383;BME280;16365;51.598;7.668;2022-08-01T00:44:33;100881.59;;;25.81;54.93
29383;BME280;16365;51.598;7.668;2022-08-01T00:47:00;100876.81;;;25.78;55.02
29383;BME280;16365;51.598;7.668;2022-08-01T00:49:27;100877.22;;;25.76;55.09
29383;BME280;16365;51.598;7.668;2022-08-01T00:51:54;100873.97;;;25.74;55.10
29383;BME280;16365;51.598;7.668;2022-08-01T00:54:24;100874.78;;;25.75;55.47
29383;BME280;16365;51.598;7.668;2022-08-01T00:56:50;100875.63;;;25.75;55.31
29383;BME280;16365;51.598;7.668;2022-08-01T00:59:17;100867.50;;;25.74;55.34
29383;BME280;16365;51.598;7.668;2022-08-01T01:01:45;100870.72;;;25.76;55.00
29383;BME280;16365;51.598;7.668;2022-08-01T01:04:16;100876.38;;;25.79;54.82
29383;BME280;16365;51.598;7.668;2022-08-01T01:09:52;100867.53;;;25.70;55.51
29383;BME280;16365;51.598;7.668;2022-08-01T01:13:04;100875.25;;;25.70;55.37
29383;BME280;16365;51.598;7.668;2022-08-01T01:18:12;100874.81;;;25.71;55.37
29383;BME280;16365;51.598;7.668;2022-08-01T01:20:43;100869.59;;;25.70;54.89
29383;BME280;16365;51.598;7.668;2022-08-01T01:29:23;100870.06;;;25.64;55.09
29383;BME280;16365;51.598;7.668;2022-08-01T01:34:23;100876.97;;;25.63;54.23
29383;BME280;16365;51.598;7.668;2022-08-01T01:36:52;100875.34;;;25.62;54.81
29383;BME280;16365;51.598;7.668;2022-08-01T01:39:21;100884.75;;;25.59;55.15
29383;BME280;16365;51.598;7.668;2022-08-01T01:41:48;100879.06;;;25.59;55.08
29383;BME280;16365;51.598;7.668;2022-08-01T01:44:16;100885.53;;;25.60;55.23
29383;BME280;16365;51.598;7.668;2022-08-01T01:46:45;100885.53;;;25.60;55.11
29383;BME280;16365;51.598;7.668;2022-08-01T01:49:14;100887.16;;;25.61;55.11
29383;BME280;16365;51.598;7.668;2022-08-01T01:51:42;100888.75;;;25.62;54.86
29383;BME280;16365;51.598;7.668;2022-08-01T01:54:33;100878.63;;;25.61;55.21
29383;BME280;16365;51.598;7.668;2022-08-01T01:57:03;100889.19;;;25.60;55.03
29383;BME280;16365;51.598;7.668;2022-08-01T01:59:33;100883.50;;;25.60;55.09
29383;BME280;16365;51.598;7.668;2022-08-01T02:02:02;100879.88;;;25.60;54.87
29383;BME280;16365;51.598;7.668;2022-08-01T02:04:33;100877.47;;;25.58;55.07
29383;BME280;16365;51.598;7.668;2022-08-01T02:07:01;100887.19;;;25.57;55.09
29383;BME280;16365;51.598;7.668;2022-08-01T02:09:30;100887.63;;;25.56;55.08
29383;BME280;16365;51.598;7.668;2022-08-01T02:11:57;100878.66;;;25.57;55.23
29383;BME280;16365;51.598;7.668;2022-08-01T02:14:34;100881.50;;;25.57;55.12
29383;BME280;16365;51.598;7.668;2022-08-01T02:17:06;100881.16;;;25.55;54.89
29383;BME280;16365;51.598;7.668;2022-08-01T02:19:35;100875.91;;;25.54;55.37
29383;BME280;16365;51.598;7.668;2022-08-01T02:22:11;100875.91;;;25.54;55.18
29383;BME280;16365;51.598;7.668;2022-08-01T02:24:46;100876.31;;;25.52;55.32
29383;BME280;16365;51.598;7.668;2022-08-01T02:27:18;100880.78;;;25.53;55.16
29383;BME280;16365;51.598;7.668;2022-08-01T02:30:02;100886.88;;;25.52;55.33
29383;BME280;16365;51.598;7.668;2022-08-01T02:32:36;100881.19;;;25.52;55.39
29383;BME280;16365;51.598;7.668;2022-08-01T02:35:07;100883.63;;;25.53;55.62
29383;BME280;16365;51.598;7.668;2022-08-01T02:37:38;100883.63;;;25.53;55.46
29383;BME280;16365;51.598;7.668;2022-08-01T02:40:12;100886.03;;;25.55;55.50
29383;BME280;16365;51.598;7.668;2022-08-01T02:42:43;100887.63;;;25.56;54.93
29383;BME280;16365;51.598;7.668;2022-08-01T02:45:12;100884.78;;;25.56;54.62
29383;BME280;16365;51.598;7.668;2022-08-01T02:47:40;100889.22;;;25.57;54.41
29383;BME280;16365;51.598;7.668;2022-08-01T02:50:10;100891.69;;;25.55;54.39
29383;BME280;16365;51.598;7.668;2022-08-01T02:52:40;100883.22;;;25.51;54.39
29383;BME280;16365;51.598;7.668;2022-08-01T02:55:08;100884.91;;;25.49;54.18
29383;BME280;16365;51.598;7.668;2022-08-01T02:57:37;100897.09;;;25.46;54.05
29383;BME280;16365;51.598;7.668;2022-08-01T03:00:18;100886.19;;;25.44;54.16
29383;BME280;16365;51.598;7.668;2022-08-01T03:02:46;100892.34;;;25.39;54.57
29383;BME280;16365;51.598;7.668;2022-08-01T03:05:15;100896.00;;;25.36;54.36
29383;BME280;16365;51.598;7.668;2022-08-01T03:07:43;100903.28;;;25.37;54.21
29383;BME280;16365;51.598;7.668;2022-08-01T03:10:14;100888.28;;;25.36;53.95
29383;BME280;16365;51.598;7.668;2022-08-01T03:12:42;100893.59;;;25.34;54.30
29383;BME280;16365;51.598;7.668;2022-08-01T03:15:13;100898.84;;;25.36;54.36
29383;BME280;16365;51.598;7.668;2022-08-01T03:17:41;100894.00;;;25.33;54.19
29383;BME280;16365;51.598;7.668;2022-08-01T03:20:12;100893.28;;;25.29;54.54
29383;BME280;16365;51.598;7.668;2022-08-01T03:22:40;100892.44;;;25.28;54.39
29383;BME280;16365;51.598;7.668;2022-08-01T03:25:10;100891.28;;;25.26;54.51
29383;BME280;16365;51.598;7.668;2022-08-01T03:27:40;100889.25;;;25.26;54.72
29383;BME280;16365;51.598;7.668;2022-08-01T03:30:08;100890.03;;;25.27;54.21
29383;BME280;16365;51.598;7.668;2022-08-01T03:32:36;100896.53;;;25.27;54.55
29383;BME280;16365;51.598;7.668;2022-08-01T03:35:03;100896.91;;;25.29;54.17
29383;BME280;16365;51.598;7.668;2022-08-01T03:37:37;100896.94;;;25.26;54.75
29383;BME280;16365;51.598;7.668;2022-08-01T03:40:49;100905.50;;;25.22;54.68
29383;BME280;16365;51.598;7.668;2022-08-01T03:43:45;100901.06;;;25.21;54.99
29383;BME280;16365;51.598;7.668;2022-08-01T03:46:20;100906.75;;;25.21;54.87
29383;BME280;16365;51.598;7.668;2022-08-01T03:48:52;100903.91;;;25.21;54.50
29383;BME280;16365;51.598;7.668;2022-08-01T03:51:22;100901.50;;;25.20;54.65
29383;BME280;16365;51.598;7.668;2022-08-01T03:53:50;100910.00;;;25.20;54.46
29383;BME280;16365;51.598;7.668;2022-08-01T03:56:18;100907.09;;;25.23;54.89
29383;BME280;16365;51.598;7.668;2022-08-01T03:58:46;100913.53;;;25.27;54.55
29383;BME280;16365;51.598;7.668;2022-08-01T04:01:16;100913.97;;;25.26;54.63
29383;BME280;16365;51.598;7.668;2022-08-01T04:03:44;100910.75;;;25.24;54.45
29383;BME280;16365;51.598;7.668;2022-08-01T04:06:11;100910.75;;;25.24;54.52
29383;BME280;16365;51.598;7.668;2022-08-01T04:08:40;100911.19;;;25.22;54.70
29383;BME280;16365;51.598;7.668;2022-08-01T04:11:08;100911.63;;;25.21;54.64
29383;BME280;16365;51.598;7.668;2022-08-01T04:13:35;100905.50;;;25.22;54.63
29383;BME280;16365;51.598;7.668;2022-08-01T04:16:03;100911.63;;;25.21;54.84
29383;BME280;16365;51.598;7.668;2022-08-01T04:18:29;100914.88;;;25.19;54.63
29383;BME280;16365;51.598;7.668;2022-08-01T04:20:56;100917.72;;;25.19;54.76
29383;BME280;16365;51.598;7.668;2022-08-01T04:23:24;100920.97;;;25.18;54.93
29383;BME280;16365;51.598;7.668;2022-08-01T04:25:52;100916.53;;;25.17;54.67
29383;BME280;16365;51.598;7.668;2022-08-01T04:28:20;100916.53;;;25.17;54.92
29383;BME280;16365;51.598;7.668;2022-08-01T04:30:50;100918.13;;;25.18;54.76
29383;BME280;16365;51.598;7.668;2022-08-01T04:33:19;100920.16;;;25.17;54.89
29383;BME280;16365;51.598;7.668;2022-08-01T04:35:47;100925.84;;;25.17;54.67
29383;BME280;16365;51.598;7.668;2022-08-01T04:38:30;100926.25;;;25.19;54.71
29383;BME280;16365;51.598;7.668;2022-08-01T04:40:59;100934.69;;;25.23;54.64
29383;BME280;16365;51.598;7.668;2022-08-01T04:43:36;100935.47;;;25.23;54.64
29383;BME280;16365;51.598;7.668;2022-08-01T04:46:03;100933.03;;;25.25;54.55
29383;BME280;16365;51.598;7.668;2022-08-01T04:48:34;100943.19;;;25.23;54.56
29383;BME280;16365;51.598;7.668;2022-08-01T04:51:03;100942.41;;;25.22;54.41
29383;BME280;16365;51.598;7.668;2022-08-01T04:53:30;100946.84;;;25.23;54.55
29383;BME280;16365;51.598;7.668;2022-08-01T04:55:58;100943.19;;;25.23;54.35
29383;BME280;16365;51.598;7.668;2022-08-01T04:58:25;100946.03;;;25.23;54.56
29383;BME280;16365;51.598;7.668;2022-08-01T05:00:51;100952.94;;;25.22;54.59
29383;BME280;16365;51.598;7.668;2022-08-01T05:03:18;100950.09;;;25.22;54.31
29383;BME280;16365;51.598;7.668;2022-08-01T05:05:45;100946.84;;;25.23;54.50
29383;BME280;16365;51.598;7.668;2022-08-01T05:08:11;100950.47;;;25.24;54.31
29383;BME280;16365;51.598;7.668;2022-08-01T05:10:38;100946.84;;;25.23;54.61
29383;BME280;16365;51.598;7.668;2022-08-01T05:13:04;100941.16;;;25.23;54.42
29383;BME280;16365;51.598;7.668;2022-08-01T05:15:34;100946.84;;;25.23;54.56
29383;BME280;16365;51.598;7.668;2022-08-01T05:18:01;100953.72;;;25.26;54.23
29383;BME280;16365;51.598;7.668;2022-08-01T05:20:27;100951.31;;;25.24;54.45
29383;BME280;16365;51.598;7.668;2022-08-01T05:22:54;100952.91;;;25.25;54.61
29383;BME280;16365;51.598;7.668;2022-08-01T05:25:23;100956.56;;;25.26;54.50
29383;BME280;16365;51.598;7.668;2022-08-01T05:28:09;100961.41;;;25.29;54.45
29383;BME280;16365;51.598;7.668;2022-08-01T05:30:36;100963.81;;;25.30;54.58
29383;BME280;16365;51.598;7.668;2022-08-01T05:33:03;100971.50;;;25.30;54.27
29383;BME280;16365;51.598;7.668;2022-08-01T05:35:29;100964.59;;;25.31;54.34
29383;BME280;16365;51.598;7.668;2022-08-01T05:38:14;100960.16;;;25.30;54.59
29383;BME280;16365;51.598;7.668;2022-08-01T05:40:41;100964.22;;;25.29;54.45
29383;BME280;16365;51.598;7.668;2022-08-01T05:43:08;100976.75;;;25.31;54.84
29383;BME280;16365;51.598;7.668;2022-08-01T05:45:34;100977.13;;;25.33;54.42
29383;BME280;16365;51.598;7.668;2022-08-01T05:48:01;100983.19;;;25.35;54.28
29383;BME280;16365;51.598;7.668;2022-08-01T05:50:27;100979.56;;;25.35;54.50
29383;BME280;16365;51.598;7.668;2022-08-01T05:52:54;100978.31;;;25.36;54.25
29383;BME280;16365;51.598;7.668;2022-08-01T05:55:20;100983.56;;;25.37;54.66
29383;BME280;16365;51.598;7.668;2022-08-01T05:57:47;100982.38;;;25.38;54.63
29383;BME280;16365;51.598;7.668;2022-08-01T06:00:13;100987.19;;;25.42;54.72
29383;BME280;16365;51.598;7.668;2022-08-01T06:02:42;100983.50;;;25.45;54.67
29383;BME280;16365;51.598;7.668;2022-08-01T06:05:10;100987.50;;;25.47;54.56
29383;BME280;16365;51.598;7.668;2022-08-01T06:07:39;100986.69;;;25.50;54.39
29383;BME280;16365;51.598;7.668;2022-08-01T06:10:06;100985.44;;;25.51;54.22
29383;BME280;16365;51.598;7.668;2022-08-01T06:12:34;100989.47;;;25.54;54.26
29383;BME280;16365;51.598;7.668;2022-08-01T06:15:02;101001.63;;;25.54;54.14
29383;BME280;16365;51.598;7.668;2022-08-01T06:17:29;100995.09;;;25.57;53.82
29383;BME280;16365;51.598;7.668;2022-08-01T06:19:56;100988.59;;;25.57;53.93
29383;BME280;16365;51.598;7.668;2022-08-01T06:22:22;100997.13;;;25.57;53.96
29383;BME280;16365;51.598;7.668;2022-08-01T06:24:50;100996.72;;;25.58;54.05
29383;BME280;16365;51.598;7.668;2022-08-01T06:27:18;101001.16;;;25.59;54.37
29383;BME280;16365;51.598;7.668;2022-08-01T06:29:47;100995.06;;;25.61;54.16
29383;BME280;16365;51.598;7.668;2022-08-01T06:32:20;100997.47;;;25.62;54.13
29383;BME280;16365;51.598;7.668;2022-08-01T06:34:53;100997.41;;;25.66;54.21
29383;BME280;16365;51.598;7.668;2022-08-01T06:37:20;100991.28;;;25.71;54.46
29383;BME280;16365;51.598;7.668;2022-08-01T06:39:47;100988.78;;;25.77;54.46
29383;BME280;16365;51.598;7.668;2022-08-01T06:42:15;100995.19;;;25.84;54.39
29383;BME280;16365;51.598;7.668;2022-08-01T06:44:42;100993.91;;;25.89;54.25
29383;BME280;16365;51.598;7.668;2022-08-01T06:47:08;101003.16;;;25.97;53.93
29383;BME280;16365;51.598;7.668;2022-08-01T06:49:35;100991.69;;;26.04;53.75
29383;BME280;16365;51.598;7.668;2022-08-01T06:52:02;100995.63;;;26.10;53.63
29383;BME280;16365;51.598;7.668;2022-08-01T06:54:30;100999.19;;;26.18;53.22
29383;BME280;16365;51.598;7.668;2022-08-01T06:56:57;100993.81;;;26.23;53.60
29383;BME280;16365;51.598;7.668;2022-08-01T06:59:23;101001.44;;;26.30;53.02
29383;BME280;16365;51.598;7.668;2022-08-01T07:01:50;100990.81;;;26.34;52.97
29383;BME280;16365;51.598;7.668;2022-08-01T07:04:16;100993.16;;;26.39;53.10
29383;BME280;16365;51.598;7.668;2022-08-01T07:06:43;100987.03;;;26.44;53.05
29383;BME280;16365;51.598;7.668;2022-08-01T07:09:09;100988.16;;;26.50;53.12
29383;BME280;16365;51.598;7.668;2022-08-01T07:11:40;100983.16;;;26.58;52.99
29383;BME280;16365;51.598;7.668;2022-08-01T07:14:07;100981.00;;;26.65;52.91
29383;BME280;16365;51.598;7.668;2022-08-01T07:16:34;100988.16;;;26.74;52.59
29383;BME280;16365;51.598;7.668;2022-08-01T07:19:01;100988.41;;;26.83;52.48
29383;BME280;16365;51.598;7.668;2022-08-01T07:21:27;100986.69;;;26.89;52.28
29383;BME280;16365;51.598;7.668;2022-08-01T07:24:11;100980.84;;;26.96;51.56
29383;BME280;16365;51.598;7.668;2022-08-01T07:26:43;100987.22;;;27.04;51.40
29383;BME280;16365;51.598;7.668;2022-08-01T07:29:21;100972.91;;;27.07;51.39
29383;BME280;16365;51.598;7.668;2022-08-01T07:31:47;100981.84;;;27.09;51.35
29383;BME280;16365;51.598;7.668;2022-08-01T07:34:14;100979.00;;;27.09;50.77
29383;BME280;16365;51.598;7.668;2022-08-01T07:36:40;100981.41;;;27.11;51.18
29383;BME280;16365;51.598;7.668;2022-08-01T07:39:07;100982.59;;;27.13;51.30
29383;BME280;16365;51.598;7.668;2022-08-01T07:41:33;100983.69;;;27.20;51.72
29383;BME280;16365;51.598;7.668;2022-08-01T07:44:20;100985.09;;;27.31;51.61
29383;BME280;16365;51.598;7.668;2022-08-01T07:46:46;100986.50;;;27.43;51.40
29383;BME280;16365;51.598;7.668;2022-08-01T07:49:13;100982.09;;;27.58;51.77
29383;BME280;16365;51.598;7.668;2022-08-01T07:51:40;100985.41;;;27.77;51.46
29383;BME280;16365;51.598;7.668;2022-08-01T07:54:06;100990.69;;;27.95;51.11
29383;BME280;16365;51.598;7.668;2022-08-01T07:56:33;100988.63;;;28.15;50.75
29383;BME280;16365;51.598;7.668;2022-08-01T07:59:00;100976.72;;;28.36;50.42
29383;BME280;16365;51.598;7.668;2022-08-01T08:01:27;100987.88;;;28.63;50.97
29383;BME280;16365;51.598;7.668;2022-08-01T08:03:53;100993.28;;;28.90;49.95
29383;BME280;16365;51.598;7.668;2022-08-01T08:06:20;100985.78;;;29.13;48.59
29383;BME280;16365;51.598;7.668;2022-08-01T08:08:47;100983.78;;;29.26;47.89
29383;BME280;16365;51.598;7.668;2022-08-01T08:11:14;100996.59;;;29.34;47.36
29383;BME280;16365;51.598;7.668;2022-08-01T08:13:40;100989.66;;;29.35;46.48
29383;BME280;16365;51.598;7.668;2022-08-01T08:16:07;100995.09;;;29.30;46.37
29383;BME280;16365;51.598;7.668;2022-08-01T08:18:33;101009.25;;;29.21;45.96
29383;BME280;16365;51.598;7.668;2022-08-01T08:21:00;101001.06;;;29.06;45.43
29383;BME280;16365;51.598;7.668;2022-08-01T08:23:32;100999.78;;;28.91;45.88
29383;BME280;16365;51.598;7.668;2022-08-01T08:26:17;101007.59;;;28.74;46.40
29383;BME280;16365;51.598;7.668;2022-08-01T08:28:43;101013.19;;;28.61;46.25
29383;BME280;16365;51.598;7.668;2022-08-01T08:31:10;101006.97;;;28.50;46.22
29383;BME280;16365;51.598;7.668;2022-08-01T08:33:51;101005.25;;;28.36;46.44
29383;BME280;16365;51.598;7.668;2022-08-01T08:36:17;101018.03;;;28.28;46.49
29383;BME280;16365;51.598;7.668;2022-08-01T08:38:44;101011.31;;;28.18;46.98
29383;BME280;16365;51.598;7.668;2022-08-01T08:41:11;101016.41;;;28.11;46.96
29383;BME280;16365;51.598;7.668;2022-08-01T08:43:42;101014.09;;;28.06;47.21
29383;BME280;16365;51.598;7.668;2022-08-01T08:46:09;101008.00;;;28.04;47.95
29383;BME280;16365;51.598;7.668;2022-08-01T08:48:40;101017.81;;;28.03;47.29
29383;BME280;16365;51.598;7.668;2022-08-01T08:51:08;101016.56;;;28.04;47.77
29383;BME280;16365;51.598;7.668;2022-08-01T08:53:40;101022.19;;;28.07;47.64
29383;BME280;16365;51.598;7.668;2022-08-01T08:56:12;101016.75;;;28.13;47.57
29383;BME280;16365;51.598;7.668;2022-08-01T08:58:45;101015.88;;;28.16;47.17
29383;BME280;16365;51.598;7.668;2022-08-01T09:01:12;101017.41;;;28.21;47.32
29383;BME280;16365;51.598;7.668;2022-08-01T09:03:40;101012.84;;;28.23;47.61
29383;BME280;16365;51.598;7.668;2022-08-01T09:06:07;101022.94;;;28.28;47.38
29383;BME280;16365;51.598;7.668;2022-08-01T09:08:35;101025.66;;;28.35;47.50
29383;BME280;16365;51.598;7.668;2022-08-01T09:11:02;101027.91;;;28.43;47.66
29383;BME280;16365;51.598;7.668;2022-08-01T09:13:29;101024.34;;;28.56;47.13
29383;BME280;16365;51.598;7.668;2022-08-01T09:15:56;101037.53;;;28.66;46.65
29383;BME280;16365;51.598;7.668;2022-08-01T09:21:17;101026.38;;;28.72;45.49
29383;BME280;16365;51.598;7.668;2022-08-01T09:23:50;101038.09;;;28.77;45.65
29383;BME280;16365;51.598;7.668;2022-08-01T09:26:27;101035.13;;;28.81;45.73
29383;BME280;16365;51.598;7.668;2022-08-01T09:28:56;101031.31;;;28.87;45.98
29383;BME280;16365;51.598;7.668;2022-08-01T09:31:26;101035.66;;;28.92;45.55
29383;BME280;16365;51.598;7.668;2022-08-01T09:34:03;101040.41;;;28.99;46.01
29383;BME280;16365;51.598;7.668;2022-08-01T09:39:21;101040.13;;;29.09;44.88
29383;BME280;16365;51.598;7.668;2022-08-01T09:41:48;101039.25;;;29.12;44.42
29383;BME280;16365;51.598;7.668;2022-08-01T09:44:16;101043.25;;;29.15;44.63
29383;BME280;16365;51.598;7.668;2022-08-01T09:46:58;101042.69;;;29.20;44.15
29383;BME280;16365;51.598;7.668;2022-08-01T09:49:34;101040.53;;;29.24;43.63
29383;BME280;16365;51.598;7.668;2022-08-01T09:52:26;101045.38;;;29.27;43.30
29383;BME280;16365;51.598;7.668;2022-08-01T09:55:04;101048.56;;;29.29;43.38
29383;BME280;16365;51.598;7.668;2022-08-01T09:57:31;101052.94;;;29.34;43.51
29383;BME280;16365;51.598;7.668;2022-08-01T09:59:59;101059.09;;;29.32;43.15
29383;BME280;16365;51.598;7.668;2022-08-01T10:02:34;101051.09;;;29.27;42.88
29383;BME280;16365;51.598;7.668;2022-08-01T10:05:03;101049.91;;;29.25;42.84
29383;BME280;16365;51.598;7.668;2022-08-01T10:07:35;101050.03;;;29.21;43.25
29383;BME280;16365;51.598;7.668;2022-08-01T10:10:14;101049.41;;;29.13;42.69
29383;BME280;16365;51.598;7.668;2022-08-01T10:12:42;101054.78;;;29.11;42.86
29383;BME280;16365;51.598;7.668;2022-08-01T10:15:12;101055.22;;;29.10;42.88
29383;BME280;16365;51.598;7.668;2022-08-01T10:17:46;101054.50;;;29.06;42.76
29383;BME280;16365;51.598;7.668;2022-08-01T10:20:21;101049.94;;;29.08;43.07
29383;BME280;16365;51.598;7.668;2022-08-01T10:23:02;101051.47;;;29.13;42.83
29383;BME280;16365;51.598;7.668;2022-08-01T10:25:40;101052.50;;;29.19;42.72
29383;BME280;16365;51.598;7.668;2022-08-01T10:28:17;101052.59;;;29.32;44.14
29383;BME280;16365;51.598;7.668;2022-08-01T10:30:49;101054.13;;;29.49;44.05
29383;BME280;16365;51.598;7.668;2022-08-01T10:33:21;101045.75;;;29.58;43.97
29383;BME280;16365;51.598;7.668;2022-08-01T10:36:08;101057.41;;;29.64;43.48
29383;BME280;16365;51.598;7.668;2022-08-01T10:38:35;101059.16;;;29.61;42.85
29383;BME280;16365;51.598;7.668;2022-08-01T10:41:04;101060.16;;;29.55;43.22
29383;BME280;16365;51.598;7.668;2022-08-01T10:43:32;101059.06;;;29.49;42.99
29383;BME280;16365;51.598;7.668;2022-08-01T10:46:02;101063.72;;;29.42;43.56
29383;BME280;16365;51.598;7.668;2022-08-01T10:51:18;101069.53;;;29.39;43.82
29383;BME280;16365;51.598;7.668;2022-08-01T10:53:52;101079.72;;;29.40;43.52
29383;BME280;16365;51.598;7.668;2022-08-01T10:56:22;101076.41;;;29.41;43.69
29383;BME280;16365;51.598;7.668;2022-08-01T10:59:01;101081.31;;;29.41;43.00
29383;BME280;16365;51.598;7.668;2022-08-01T11:01:32;101080.78;;;29.46;43.42
29383;BME280;16365;51.598;7.668;2022-08-01T11:04:13;101076.66;;;29.47;43.22
29383;BME280;16365;51.598;7.668;2022-08-01T11:06:48;101085.88;;;29.55;43.19
29383;BME280;16365;51.598;7.668;2022-08-01T11:09:23;101075.66;;;29.54;42.54
29383;BME280;16365;51.598;7.668;2022-08-01T11:12:07;101083.34;;;29.57;42.86
29383;BME280;16365;51.598;7.668;2022-08-01T11:15:17;101078.91;;;29.56;42.88
29383;BME280;16365;51.598;7.668;2022-08-01T11:17:57;101086.91;;;29.61;42.42
29383;BME280;16365;51.598;7.668;2022-08-01T11:20:27;101090.66;;;29.58;42.54
29383;BME280;16365;51.598;7.668;2022-08-01T11:28:25;101083.94;;;29.35;42.20
29383;BME280;16365;51.598;7.668;2022-08-01T11:38:42;101092.78;;;29.08;42.45
29383;BME280;16365;51.598;7.668;2022-08-01T11:41:15;101079.84;;;29.04;42.55
29383;BME280;16365;51.598;7.668;2022-08-01T11:52:06;101081.19;;;28.99;42.27
29383;BME280;16365;51.598;7.668;2022-08-01T11:54:37;101086.97;;;28.96;42.08
29383;BME280;16365;51.598;7.668;2022-08-01T11:57:14;101088.72;;;28.89;42.25
29383;BME280;16365;51.598;7.668;2022-08-01T11:59:46;101097.50;;;28.82;42.29
29383;BME280;16365;51.598;7.668;2022-08-01T12:02:33;101098.91;;;28.74;42.24
29383;BME280;16365;51.598;7.668;2022-08-01T12:05:04;101103.53;;;28.68;42.19
29383;BME280;16365;51.598;7.668;2022-08-01T12:07:36;101093.47;;;28.63;42.30
29383;BME280;16365;51.598;7.668;2022-08-01T12:10:13;101086.56;;;28.61;42.45
29383;BME280;16365;51.598;7.668;2022-08-01T12:12:46;101089.50;;;28.57;42.45
29383;BME280;16365;51.598;7.668;2022-08-01T12:15:15;101092.34;;;28.57;42.52
29383;BME280;16365;51.598;7.668;2022-08-01T12:17:59;101094.50;;;28.53;42.85
29383;BME280;16365;51.598;7.668;2022-08-01T12:20:32;101093.59;;;28.56;42.21
29383;BME280;16365;51.598;7.668;2022-08-01T12:23:04;101102.09;;;28.60;42.73
29383;BME280;16365;51.598;7.668;2022-08-01T12:25:32;101096.31;;;28.63;42.11
29383;BME280;16365;51.598;7.668;2022-08-01T12:28:01;101100.31;;;28.66;41.99
29383;BME280;16365;51.598;7.668;2022-08-01T12:30:29;101102.28;;;28.69;41.79
29383;BME280;16365;51.598;7.668;2022-08-01T12:32:57;101107.13;;;28.72;41.35
29383;BME280;16365;51.598;7.668;2022-08-01T12:35:25;101109.13;;;28.72;40.96
29383;BME280;16365;51.598;7.668;2022-08-01T12:40:29;101112.09;;;28.68;40.91
29383;BME280;16365;51.598;7.668;2022-08-01T12:43:01;101108.00;;;28.69;40.97
29383;BME280;16365;51.598;7.668;2022-08-01T12:45:41;101111.19;;;28.71;40.82
29383;BME280;16365;51.598;7.668;2022-08-01T12:48:22;101110.66;;;28.76;40.96
29383;BME280;16365;51.598;7.668;2022-08-01T12:50:51;101104.88;;;28.80;40.34
29383;BME280;16365;51.598;7.668;2022-08-01T12:53:20;101102.03;;;28.80;40.30
29383;BME280;16365;51.598;7.668;2022-08-01T12:55:53;101101.69;;;28.78;39.89
29383;BME280;16365;51.598;7.668;2022-08-01T12:58:31;101102.91;;;28.77;39.91
29383;BME280;16365;51.598;7.668;2022-08-01T13:01:08;101106.22;;;28.75;40.51
29383;BME280;16365;51.598;7.668;2022-08-01T13:03:36;101106.13;;;28.79;40.43
29383;BME280;16365;51.598;7.668;2022-08-01T13:06:11;101094.78;;;28.75;39.98
29383;BME280;16365;51.598;7.668;2022-08-01T13:08:38;101103.63;;;28.81;40.62
29383;BME280;16365;51.598;7.668;2022-08-01T13:11:13;101096.69;;;28.82;40.47
29383;BME280;16365;51.598;7.668;2022-08-01T13:16:10;101094.19;;;28.84;40.38
29383;BME280;16365;51.598;7.668;2022-08-01T13:18:57;101092.47;;;28.86;40.96
29383;BME280;16365;51.598;7.668;2022-08-01T13:21:28;101092.03;;;28.88;40.11
29383;BME280;16365;51.598;7.668;2022-08-01T13:24:15;101087.06;;;28.92;39.78
29383;BME280;16365;51.598;7.668;2022-08-01T13:26:51;101095.63;;;28.92;39.68
29383;BME280;16365;51.598;7.668;2022-08-01T13:29:20;101093.94;;;28.94;39.84
29383;BME280;16365;51.598;7.668;2022-08-01T13:31:47;101102.03;;;28.96;39.89
29383;BME280;16365;51.598;7.668;2022-08-01T13:34:14;101098.41;;;28.96;40.21
29383;BME280;16365;51.598;7.668;2022-08-01T13:36:41;101100.44;;;28.95;40.27
29383;BME280;16365;51.598;7.668;2022-08-01T13:39:14;101102.41;;;28.98;39.87
29383;BME280;16365;51.598;7.668;2022-08-01T13:42:00;101105.28;;;28.98;40.02
29383;BME280;16365;51.598;7.668;2022-08-01T13:44:26;101102.03;;;28.96;40.02
29383;BME280;16365;51.598;7.668;2022-08-01T13:46:53;101099.19;;;28.96;40.12
29383;BME280;16365;51.598;7.668;2022-08-01T13:49:20;101102.50;;;28.94;40.64
29383;BME280;16365;51.598;7.668;2022-08-01T13:51:48;101105.34;;;28.94;40.31
29383;BME280;16365;51.598;7.668;2022-08-01T13:54:17;101107.84;;;28.92;40.45
29383;BME280;16365;51.598;7.668;2022-08-01T13:56:44;101103.38;;;28.91;40.63
29383;BME280;16365;51.598;7.668;2022-08-01T13:59:10;101102.13;;;28.92;40.34